<?xml version="1.0" encoding="UTF-8"?>
<gpx version="1.1" creator="2bulu-scraper" xmlns="http://www.topografix.com/GPX/1/1">
  <metadata><name>荣县白塔山小环线</name><desc>source: 2bulu.com trackId=83429915; exported 2026-09-01T15:46:21.214Z</desc>
    <bounds minlat="29.4491804" minlon="104.4236472" maxlat="29.4556918" maxlon="104.4311818"/>
    <link href="https://www.2bulu.com/track/t-9eSM0S0CQzXp%252FR2KBg5Tzw%253D%253D.htm"><text>2bulu 源页面</text></link>
  </metadata>
  <wpt lat="29.4546264" lon="104.4269652"><ele>323</ele><name>
        </name></wpt>
  <wpt lat="29.4536991" lon="104.4269683"><ele>343</ele><name>
        </name></wpt>
  <wpt lat="29.4532704" lon="104.4289077"><ele>353</ele><name>
        </name></wpt>
  <wpt lat="29.4524591" lon="104.4296363"><ele>341</ele><name>
        </name></wpt>
  <wpt lat="29.4497547" lon="104.4311772"><ele>315</ele><name>
        </name></wpt>
  <wpt lat="29.4492382" lon="104.4299306"><ele>323</ele><name>
        </name></wpt>
  <wpt lat="29.4492233" lon="104.4246354"><ele>332</ele><name>
        </name></wpt>
  <wpt lat="29.4496519" lon="104.424633"><ele>333</ele><name>
        </name></wpt>
  <wpt lat="29.4520513" lon="104.424381"><ele>330</ele><name>
        </name></wpt>
  <wpt lat="29.4526329" lon="104.4239705"><ele>340</ele><name>
        </name></wpt>
  <wpt lat="29.4534801" lon="104.4237247"><ele>339</ele><name>
        </name></wpt>
  <wpt lat="29.4546281" lon="104.4260339"><ele>364</ele><name>
        </name></wpt>
  <wpt lat="29.4552356" lon="104.426658"><ele>315</ele><name>
        </name></wpt>
  <trk><name>荣县白塔山小环线</name>
      <trkseg>
        <trkpt lat="29.4556918" lon="104.426211"><ele>315.89</ele><time>2026-05-02T00:14:56.000Z</time></trkpt>
        <trkpt lat="29.4556328" lon="104.4262735"><ele>315.89</ele><time>2026-05-02T00:15:04.000Z</time></trkpt>
        <trkpt lat="29.4555619" lon="104.4263461"><ele>314.36</ele><time>2026-05-02T00:15:08.000Z</time></trkpt>
        <trkpt lat="29.4554801" lon="104.4264258"><ele>313.32</ele><time>2026-05-02T00:15:12.000Z</time></trkpt>
        <trkpt lat="29.455397" lon="104.4265308"><ele>311.25</ele><time>2026-05-02T00:15:16.000Z</time></trkpt>
        <trkpt lat="29.4553284" lon="104.4266403"><ele>311.42</ele><time>2026-05-02T00:15:20.000Z</time></trkpt>
        <trkpt lat="29.4552431" lon="104.4267484"><ele>312.73</ele><time>2026-05-02T00:15:26.000Z</time></trkpt>
        <trkpt lat="29.4551386" lon="104.4268231"><ele>311.81</ele><time>2026-05-02T00:15:32.000Z</time></trkpt>
        <trkpt lat="29.4550257" lon="104.4268744"><ele>312.36</ele><time>2026-05-02T00:15:37.000Z</time></trkpt>
        <trkpt lat="29.4549272" lon="104.4268607"><ele>316.19</ele><time>2026-05-02T00:15:41.000Z</time></trkpt>
        <trkpt lat="29.4548142" lon="104.4269076"><ele>319.58</ele><time>2026-05-02T00:15:47.000Z</time></trkpt>
        <trkpt lat="29.4547257" lon="104.4269642"><ele>322.24</ele><time>2026-05-02T00:15:53.000Z</time></trkpt>
        <trkpt lat="29.4546264" lon="104.4269652"><ele>322.46</ele><time>2026-05-02T00:15:59.000Z</time></trkpt>
        <trkpt lat="29.4545239" lon="104.4269533"><ele>322.6</ele><time>2026-05-02T00:16:15.000Z</time></trkpt>
        <trkpt lat="29.454428" lon="104.4269342"><ele>326.26</ele><time>2026-05-02T00:16:21.000Z</time></trkpt>
        <trkpt lat="29.4543267" lon="104.4269063"><ele>328.99</ele><time>2026-05-02T00:16:27.000Z</time></trkpt>
        <trkpt lat="29.4542135" lon="104.4268935"><ele>330.77</ele><time>2026-05-02T00:16:33.000Z</time></trkpt>
        <trkpt lat="29.4541121" lon="104.4268768"><ele>331.77</ele><time>2026-05-02T00:16:37.000Z</time></trkpt>
        <trkpt lat="29.4540019" lon="104.4268822"><ele>332.23</ele><time>2026-05-02T00:16:43.000Z</time></trkpt>
        <trkpt lat="29.453895" lon="104.4269126"><ele>332.86</ele><time>2026-05-02T00:16:49.000Z</time></trkpt>
        <trkpt lat="29.453796" lon="104.4269376"><ele>333.77</ele><time>2026-05-02T00:16:57.000Z</time></trkpt>
        <trkpt lat="29.4536991" lon="104.4269683"><ele>335.93</ele><time>2026-05-02T00:17:05.000Z</time></trkpt>
        <trkpt lat="29.4536081" lon="104.42702"><ele>338.92</ele><time>2026-05-02T00:17:15.000Z</time></trkpt>
        <trkpt lat="29.4535273" lon="104.427081"><ele>340.82</ele><time>2026-05-02T00:17:23.000Z</time></trkpt>
        <trkpt lat="29.4534477" lon="104.427145"><ele>344.47</ele><time>2026-05-02T00:17:29.000Z</time></trkpt>
        <trkpt lat="29.4533718" lon="104.4272167"><ele>344.89</ele><time>2026-05-02T00:17:39.000Z</time></trkpt>
        <trkpt lat="29.4533055" lon="104.4273086"><ele>346.84</ele><time>2026-05-02T00:17:45.000Z</time></trkpt>
        <trkpt lat="29.4532493" lon="104.4274045"><ele>348.54</ele><time>2026-05-02T00:17:51.000Z</time></trkpt>
        <trkpt lat="29.4531886" lon="104.427502"><ele>349.17</ele><time>2026-05-02T00:17:59.000Z</time></trkpt>
        <trkpt lat="29.4531604" lon="104.4276116"><ele>349.8</ele><time>2026-05-02T00:18:07.000Z</time></trkpt>
        <trkpt lat="29.4532044" lon="104.4277313"><ele>349.85</ele><time>2026-05-02T00:18:15.000Z</time></trkpt>
        <trkpt lat="29.4532311" lon="104.4278652"><ele>354.03</ele><time>2026-05-02T00:18:23.000Z</time></trkpt>
        <trkpt lat="29.4532221" lon="104.4279851"><ele>353.54</ele><time>2026-05-02T00:18:29.000Z</time></trkpt>
        <trkpt lat="29.4532097" lon="104.4281154"><ele>353.23</ele><time>2026-05-02T00:18:37.000Z</time></trkpt>
        <trkpt lat="29.4532335" lon="104.428231"><ele>356.06</ele><time>2026-05-02T00:18:45.000Z</time></trkpt>
        <trkpt lat="29.4532614" lon="104.428346"><ele>354.99</ele><time>2026-05-02T00:18:52.000Z</time></trkpt>
        <trkpt lat="29.4532968" lon="104.4284504"><ele>354.21</ele><time>2026-05-02T00:18:57.000Z</time></trkpt>
        <trkpt lat="29.4533547" lon="104.4285603"><ele>353.75</ele><time>2026-05-02T00:19:05.000Z</time></trkpt>
        <trkpt lat="29.4533477" lon="104.4286778"><ele>353.28</ele><time>2026-05-02T00:19:13.000Z</time></trkpt>
        <trkpt lat="29.4533018" lon="104.4287923"><ele>352.95</ele><time>2026-05-02T00:19:21.000Z</time></trkpt>
        <trkpt lat="29.4532704" lon="104.4289077"><ele>352.88</ele><time>2026-05-02T00:19:29.000Z</time></trkpt>
        <trkpt lat="29.4532304" lon="104.429013"><ele>352.84</ele><time>2026-05-02T00:19:35.000Z</time></trkpt>
        <trkpt lat="29.4532208" lon="104.4291277"><ele>352.76</ele><time>2026-05-02T00:19:43.000Z</time></trkpt>
        <trkpt lat="29.4532121" lon="104.4292665"><ele>354.46</ele><time>2026-05-02T00:19:51.000Z</time></trkpt>
        <trkpt lat="29.4532159" lon="104.4293897"><ele>352.32</ele><time>2026-05-02T00:19:57.000Z</time></trkpt>
        <trkpt lat="29.45316" lon="104.4294857"><ele>351.14</ele><time>2026-05-02T00:20:03.000Z</time></trkpt>
        <trkpt lat="29.453078" lon="104.4295621"><ele>350.44</ele><time>2026-05-02T00:20:11.000Z</time></trkpt>
        <trkpt lat="29.4529917" lon="104.4296147"><ele>350.48</ele><time>2026-05-02T00:20:19.000Z</time></trkpt>
        <trkpt lat="29.452882" lon="104.4296434"><ele>349.52</ele><time>2026-05-02T00:20:25.000Z</time></trkpt>
        <trkpt lat="29.4527786" lon="104.4296511"><ele>346.59</ele><time>2026-05-02T00:20:29.000Z</time></trkpt>
        <trkpt lat="29.4526764" lon="104.4296549"><ele>345.12</ele><time>2026-05-02T00:20:37.000Z</time></trkpt>
        <trkpt lat="29.4525601" lon="104.4296454"><ele>343.89</ele><time>2026-05-02T00:20:45.000Z</time></trkpt>
        <trkpt lat="29.4524591" lon="104.4296363"><ele>343.24</ele><time>2026-05-02T00:20:51.000Z</time></trkpt>
        <trkpt lat="29.4523618" lon="104.4296472"><ele>342.45</ele><time>2026-05-02T00:20:59.000Z</time></trkpt>
        <trkpt lat="29.452265" lon="104.4296565"><ele>340.27</ele><time>2026-05-02T00:21:07.000Z</time></trkpt>
        <trkpt lat="29.4521751" lon="104.4296879"><ele>340.12</ele><time>2026-05-02T00:21:15.000Z</time></trkpt>
        <trkpt lat="29.4520797" lon="104.4297329"><ele>340.39</ele><time>2026-05-02T00:21:23.000Z</time></trkpt>
        <trkpt lat="29.4519723" lon="104.4297592"><ele>341.34</ele><time>2026-05-02T00:21:29.000Z</time></trkpt>
        <trkpt lat="29.4518715" lon="104.4297872"><ele>341.53</ele><time>2026-05-02T00:21:37.000Z</time></trkpt>
        <trkpt lat="29.4517623" lon="104.4298174"><ele>340.56</ele><time>2026-05-02T00:21:45.000Z</time></trkpt>
        <trkpt lat="29.4516594" lon="104.4298739"><ele>339.66</ele><time>2026-05-02T00:21:53.000Z</time></trkpt>
        <trkpt lat="29.4515664" lon="104.4299331"><ele>338.64</ele><time>2026-05-02T00:22:01.000Z</time></trkpt>
        <trkpt lat="29.4514772" lon="104.4299933"><ele>338.28</ele><time>2026-05-02T00:22:07.000Z</time></trkpt>
        <trkpt lat="29.4513831" lon="104.4300359"><ele>337.98</ele><time>2026-05-02T00:22:15.000Z</time></trkpt>
        <trkpt lat="29.4512841" lon="104.4300914"><ele>337.26</ele><time>2026-05-02T00:22:25.000Z</time></trkpt>
        <trkpt lat="29.4511977" lon="104.4301548"><ele>335.84</ele><time>2026-05-02T00:22:33.000Z</time></trkpt>
        <trkpt lat="29.4511178" lon="104.4302434"><ele>334.78</ele><time>2026-05-02T00:22:39.000Z</time></trkpt>
        <trkpt lat="29.4510159" lon="104.4303171"><ele>333.89</ele><time>2026-05-02T00:22:47.000Z</time></trkpt>
        <trkpt lat="29.4509233" lon="104.4303782"><ele>336.26</ele><time>2026-05-02T00:22:53.000Z</time></trkpt>
        <trkpt lat="29.4508423" lon="104.4304329"><ele>334.15</ele><time>2026-05-02T00:22:59.000Z</time></trkpt>
        <trkpt lat="29.4507494" lon="104.4304595"><ele>334.21</ele><time>2026-05-02T00:23:05.000Z</time></trkpt>
        <trkpt lat="29.4506589" lon="104.4304991"><ele>338.2</ele><time>2026-05-02T00:23:11.000Z</time></trkpt>
        <trkpt lat="29.4505722" lon="104.4305755"><ele>339.56</ele><time>2026-05-02T00:23:19.000Z</time></trkpt>
        <trkpt lat="29.4504935" lon="104.4306521"><ele>338.91</ele><time>2026-05-02T00:23:25.000Z</time></trkpt>
        <trkpt lat="29.4504314" lon="104.4307352"><ele>336.14</ele><time>2026-05-02T00:23:33.000Z</time></trkpt>
        <trkpt lat="29.4503564" lon="104.4308284"><ele>330.28</ele><time>2026-05-02T00:23:39.000Z</time></trkpt>
        <trkpt lat="29.4502724" lon="104.4309061"><ele>329.22</ele><time>2026-05-02T00:23:47.000Z</time></trkpt>
        <trkpt lat="29.4501798" lon="104.430965"><ele>325.9</ele><time>2026-05-02T00:23:55.000Z</time></trkpt>
        <trkpt lat="29.4500794" lon="104.4310009"><ele>322.83</ele><time>2026-05-02T00:24:01.000Z</time></trkpt>
        <trkpt lat="29.4499588" lon="104.4310584"><ele>320.2</ele><time>2026-05-02T00:24:09.000Z</time></trkpt>
        <trkpt lat="29.4498515" lon="104.4311248"><ele>318.36</ele><time>2026-05-02T00:24:17.000Z</time></trkpt>
        <trkpt lat="29.4497547" lon="104.4311772"><ele>317.04</ele><time>2026-05-02T00:24:23.000Z</time></trkpt>
        <trkpt lat="29.4496599" lon="104.4311818"><ele>315.97</ele><time>2026-05-02T00:24:35.000Z</time></trkpt>
        <trkpt lat="29.4495815" lon="104.431119"><ele>315.14</ele><time>2026-05-02T00:24:43.000Z</time></trkpt>
        <trkpt lat="29.4495179" lon="104.4310353"><ele>314.58</ele><time>2026-05-02T00:24:51.000Z</time></trkpt>
        <trkpt lat="29.4494617" lon="104.4309143"><ele>315.39</ele><time>2026-05-02T00:24:59.000Z</time></trkpt>
        <trkpt lat="29.4494024" lon="104.4308105"><ele>316.02</ele><time>2026-05-02T00:25:05.000Z</time></trkpt>
        <trkpt lat="29.4493303" lon="104.4307241"><ele>316.24</ele><time>2026-05-02T00:25:13.000Z</time></trkpt>
        <trkpt lat="29.4492459" lon="104.4306516"><ele>316.54</ele><time>2026-05-02T00:25:21.000Z</time></trkpt>
        <trkpt lat="29.4492092" lon="104.4305472"><ele>316.84</ele><time>2026-05-02T00:25:27.000Z</time></trkpt>
        <trkpt lat="29.4491845" lon="104.4304185"><ele>317.02</ele><time>2026-05-02T00:25:35.000Z</time></trkpt>
        <trkpt lat="29.4491804" lon="104.4303015"><ele>317.43</ele><time>2026-05-02T00:25:41.000Z</time></trkpt>
        <trkpt lat="29.449205" lon="104.4301805"><ele>321.59</ele><time>2026-05-02T00:25:49.000Z</time></trkpt>
        <trkpt lat="29.4492189" lon="104.4300496"><ele>321.41</ele><time>2026-05-02T00:25:57.000Z</time></trkpt>
        <trkpt lat="29.4492382" lon="104.4299306"><ele>322.74</ele><time>2026-05-02T00:26:05.000Z</time></trkpt>
        <trkpt lat="29.4493215" lon="104.4298555"><ele>322.67</ele><time>2026-05-02T00:26:13.000Z</time></trkpt>
        <trkpt lat="29.4494171" lon="104.4297924"><ele>326.25</ele><time>2026-05-02T00:26:21.000Z</time></trkpt>
        <trkpt lat="29.4494671" lon="104.4296975"><ele>328.48</ele><time>2026-05-02T00:26:31.000Z</time></trkpt>
        <trkpt lat="29.4495289" lon="104.4295852"><ele>328.08</ele><time>2026-05-02T00:26:40.000Z</time></trkpt>
        <trkpt lat="29.4495835" lon="104.4294891"><ele>328.05</ele><time>2026-05-02T00:26:45.000Z</time></trkpt>
        <trkpt lat="29.4496344" lon="104.4293984"><ele>327.91</ele><time>2026-05-02T00:26:53.000Z</time></trkpt>
        <trkpt lat="29.4496586" lon="104.4292976"><ele>327.73</ele><time>2026-05-02T00:27:01.000Z</time></trkpt>
        <trkpt lat="29.4496651" lon="104.4291836"><ele>327.87</ele><time>2026-05-02T00:27:09.000Z</time></trkpt>
        <trkpt lat="29.4496555" lon="104.4290492"><ele>328.6</ele><time>2026-05-02T00:27:17.000Z</time></trkpt>
        <trkpt lat="29.4496356" lon="104.4289148"><ele>329.5</ele><time>2026-05-02T00:27:25.000Z</time></trkpt>
        <trkpt lat="29.4496655" lon="104.428787"><ele>330.18</ele><time>2026-05-02T00:27:33.000Z</time></trkpt>
        <trkpt lat="29.449719" lon="104.4286927"><ele>330.48</ele><time>2026-05-02T00:27:39.000Z</time></trkpt>
        <trkpt lat="29.4497938" lon="104.4286133"><ele>330.35</ele><time>2026-05-02T00:27:47.000Z</time></trkpt>
        <trkpt lat="29.4498131" lon="104.4285124"><ele>330</ele><time>2026-05-02T00:27:53.000Z</time></trkpt>
        <trkpt lat="29.4497941" lon="104.4283861"><ele>330.12</ele><time>2026-05-02T00:28:01.000Z</time></trkpt>
        <trkpt lat="29.4497707" lon="104.4282616"><ele>329.09</ele><time>2026-05-02T00:28:07.000Z</time></trkpt>
        <trkpt lat="29.4497563" lon="104.4281442"><ele>328.22</ele><time>2026-05-02T00:28:13.000Z</time></trkpt>
        <trkpt lat="29.4497133" lon="104.4280435"><ele>327.66</ele><time>2026-05-02T00:28:23.000Z</time></trkpt>
        <trkpt lat="29.4496613" lon="104.4279487"><ele>328.12</ele><time>2026-05-02T00:28:29.000Z</time></trkpt>
        <trkpt lat="29.4496296" lon="104.4278312"><ele>328.44</ele><time>2026-05-02T00:28:37.000Z</time></trkpt>
        <trkpt lat="29.4496471" lon="104.4277139"><ele>328.75</ele><time>2026-05-02T00:28:43.000Z</time></trkpt>
        <trkpt lat="29.4496839" lon="104.4275975"><ele>327.63</ele><time>2026-05-02T00:28:49.000Z</time></trkpt>
        <trkpt lat="29.449709" lon="104.4274888"><ele>326.94</ele><time>2026-05-02T00:28:55.000Z</time></trkpt>
        <trkpt lat="29.4497239" lon="104.4273591"><ele>327.17</ele><time>2026-05-02T00:29:03.000Z</time></trkpt>
        <trkpt lat="29.4497317" lon="104.4272394"><ele>327.43</ele><time>2026-05-02T00:29:09.000Z</time></trkpt>
        <trkpt lat="29.449684" lon="104.4271342"><ele>327.4</ele><time>2026-05-02T00:29:17.000Z</time></trkpt>
        <trkpt lat="29.449599" lon="104.42708"><ele>327.17</ele><time>2026-05-02T00:29:23.000Z</time></trkpt>
        <trkpt lat="29.4494922" lon="104.4270368"><ele>326.55</ele><time>2026-05-02T00:29:29.000Z</time></trkpt>
        <trkpt lat="29.4493821" lon="104.4269939"><ele>325.95</ele><time>2026-05-02T00:29:35.000Z</time></trkpt>
        <trkpt lat="29.4493272" lon="104.4268893"><ele>325.22</ele><time>2026-05-02T00:29:43.000Z</time></trkpt>
        <trkpt lat="29.4493425" lon="104.4267569"><ele>324.77</ele><time>2026-05-02T00:29:51.000Z</time></trkpt>
        <trkpt lat="29.4493635" lon="104.4266151"><ele>324.95</ele><time>2026-05-02T00:29:59.000Z</time></trkpt>
        <trkpt lat="29.4493651" lon="104.4264743"><ele>324.03</ele><time>2026-05-02T00:30:07.000Z</time></trkpt>
        <trkpt lat="29.4493567" lon="104.4263566"><ele>323.53</ele><time>2026-05-02T00:30:13.000Z</time></trkpt>
        <trkpt lat="29.4493459" lon="104.4262456"><ele>323.18</ele><time>2026-05-02T00:30:21.000Z</time></trkpt>
        <trkpt lat="29.4494059" lon="104.4261832"><ele>325.21</ele><time>2026-05-02T00:30:27.000Z</time></trkpt>
        <trkpt lat="29.4494857" lon="104.4261024"><ele>324.54</ele><time>2026-05-02T00:30:33.000Z</time></trkpt>
        <trkpt lat="29.4494977" lon="104.4259841"><ele>326.5</ele><time>2026-05-02T00:30:43.000Z</time></trkpt>
        <trkpt lat="29.4494709" lon="104.4258369"><ele>330.67</ele><time>2026-05-02T00:30:53.000Z</time></trkpt>
        <trkpt lat="29.4494396" lon="104.4256958"><ele>332.98</ele><time>2026-05-02T00:30:59.000Z</time></trkpt>
        <trkpt lat="29.4493936" lon="104.4255724"><ele>333.62</ele><time>2026-05-02T00:31:05.000Z</time></trkpt>
        <trkpt lat="29.4493468" lon="104.4254633"><ele>332.59</ele><time>2026-05-02T00:31:11.000Z</time></trkpt>
        <trkpt lat="29.4493017" lon="104.4253663"><ele>332.12</ele><time>2026-05-02T00:31:17.000Z</time></trkpt>
        <trkpt lat="29.4492846" lon="104.4252517"><ele>330.23</ele><time>2026-05-02T00:31:25.000Z</time></trkpt>
        <trkpt lat="29.4492759" lon="104.4251058"><ele>329.42</ele><time>2026-05-02T00:31:35.000Z</time></trkpt>
        <trkpt lat="29.4492757" lon="104.4249639"><ele>328.16</ele><time>2026-05-02T00:31:43.000Z</time></trkpt>
        <trkpt lat="29.4492721" lon="104.4248449"><ele>327.33</ele><time>2026-05-02T00:31:49.000Z</time></trkpt>
        <trkpt lat="29.4492401" lon="104.4247417"><ele>326.54</ele><time>2026-05-02T00:31:55.000Z</time></trkpt>
        <trkpt lat="29.4492233" lon="104.4246354"><ele>326.16</ele><time>2026-05-02T00:32:05.000Z</time></trkpt>
        <trkpt lat="29.4492679" lon="104.4246656"><ele>328.73</ele><time>2026-05-02T00:32:15.000Z</time></trkpt>
        <trkpt lat="29.4493529" lon="104.4247576"><ele>330.86</ele><time>2026-05-02T00:32:23.000Z</time></trkpt>
        <trkpt lat="29.4494544" lon="104.4247575"><ele>330.44</ele><time>2026-05-02T00:32:33.000Z</time></trkpt>
        <trkpt lat="29.4495607" lon="104.4246986"><ele>332.37</ele><time>2026-05-02T00:32:41.000Z</time></trkpt>
        <trkpt lat="29.4496519" lon="104.424633"><ele>332.81</ele><time>2026-05-02T00:32:47.000Z</time></trkpt>
        <trkpt lat="29.4497461" lon="104.4245869"><ele>332.96</ele><time>2026-05-02T00:32:57.000Z</time></trkpt>
        <trkpt lat="29.4498132" lon="104.4244885"><ele>334.01</ele><time>2026-05-02T00:33:03.000Z</time></trkpt>
        <trkpt lat="29.4498859" lon="104.4244161"><ele>334.7</ele><time>2026-05-02T00:33:07.000Z</time></trkpt>
        <trkpt lat="29.449977" lon="104.4243568"><ele>335.38</ele><time>2026-05-02T00:33:11.000Z</time></trkpt>
        <trkpt lat="29.4500671" lon="104.4243169"><ele>334.94</ele><time>2026-05-02T00:33:15.000Z</time></trkpt>
        <trkpt lat="29.4501574" lon="104.4242778"><ele>335.54</ele><time>2026-05-02T00:33:19.000Z</time></trkpt>
        <trkpt lat="29.4502618" lon="104.4242535"><ele>336.2</ele><time>2026-05-02T00:33:23.000Z</time></trkpt>
        <trkpt lat="29.450366" lon="104.4242619"><ele>336.33</ele><time>2026-05-02T00:33:27.000Z</time></trkpt>
        <trkpt lat="29.4504599" lon="104.4242866"><ele>336.49</ele><time>2026-05-02T00:33:31.000Z</time></trkpt>
        <trkpt lat="29.4505193" lon="104.4242144"><ele>336.3</ele><time>2026-05-02T00:33:37.000Z</time></trkpt>
        <trkpt lat="29.4505943" lon="104.4241371"><ele>335.84</ele><time>2026-05-02T00:33:47.000Z</time></trkpt>
        <trkpt lat="29.4506876" lon="104.4240903"><ele>336.35</ele><time>2026-05-02T00:33:55.000Z</time></trkpt>
        <trkpt lat="29.4507557" lon="104.4240193"><ele>337.29</ele><time>2026-05-02T00:34:01.000Z</time></trkpt>
        <trkpt lat="29.4508405" lon="104.4240052"><ele>337.08</ele><time>2026-05-02T00:34:09.000Z</time></trkpt>
        <trkpt lat="29.4509327" lon="104.4240389"><ele>337.32</ele><time>2026-05-02T00:34:15.000Z</time></trkpt>
        <trkpt lat="29.4510406" lon="104.4240531"><ele>338.43</ele><time>2026-05-02T00:34:23.000Z</time></trkpt>
        <trkpt lat="29.4511601" lon="104.4240905"><ele>337.85</ele><time>2026-05-02T00:34:29.000Z</time></trkpt>
        <trkpt lat="29.4512627" lon="104.4241176"><ele>338.33</ele><time>2026-05-02T00:34:35.000Z</time></trkpt>
        <trkpt lat="29.4513603" lon="104.4241474"><ele>337.48</ele><time>2026-05-02T00:34:41.000Z</time></trkpt>
        <trkpt lat="29.4514319" lon="104.4242403"><ele>338.2</ele><time>2026-05-02T00:34:49.000Z</time></trkpt>
        <trkpt lat="29.4514985" lon="104.4243367"><ele>338.22</ele><time>2026-05-02T00:34:55.000Z</time></trkpt>
        <trkpt lat="29.451578" lon="104.424427"><ele>337.4</ele><time>2026-05-02T00:35:05.000Z</time></trkpt>
        <trkpt lat="29.4516642" lon="104.4244736"><ele>338.19</ele><time>2026-05-02T00:35:09.000Z</time></trkpt>
        <trkpt lat="29.4517591" lon="104.4245176"><ele>335.42</ele><time>2026-05-02T00:35:13.000Z</time></trkpt>
        <trkpt lat="29.4518679" lon="104.4245303"><ele>336.52</ele><time>2026-05-02T00:35:19.000Z</time></trkpt>
        <trkpt lat="29.4519792" lon="104.4244839"><ele>333.94</ele><time>2026-05-02T00:35:23.000Z</time></trkpt>
        <trkpt lat="29.4520513" lon="104.424381"><ele>332.38</ele><time>2026-05-02T00:35:29.000Z</time></trkpt>
        <trkpt lat="29.4520483" lon="104.4242167"><ele>331.19</ele><time>2026-05-02T00:35:41.000Z</time></trkpt>
        <trkpt lat="29.451981" lon="104.4241122"><ele>331.62</ele><time>2026-05-02T00:35:45.000Z</time></trkpt>
        <trkpt lat="29.4518956" lon="104.4240019"><ele>332.42</ele><time>2026-05-02T00:35:51.000Z</time></trkpt>
        <trkpt lat="29.4519581" lon="104.4239256"><ele>330.63</ele><time>2026-05-02T00:35:57.000Z</time></trkpt>
        <trkpt lat="29.4520697" lon="104.4239409"><ele>329.54</ele><time>2026-05-02T00:36:01.000Z</time></trkpt>
        <trkpt lat="29.4521894" lon="104.4239652"><ele>328.66</ele><time>2026-05-02T00:36:07.000Z</time></trkpt>
        <trkpt lat="29.4522948" lon="104.4240037"><ele>332.22</ele><time>2026-05-02T00:36:11.000Z</time></trkpt>
        <trkpt lat="29.4524066" lon="104.4239703"><ele>330.65</ele><time>2026-05-02T00:36:17.000Z</time></trkpt>
        <trkpt lat="29.4525232" lon="104.4239704"><ele>330.08</ele><time>2026-05-02T00:36:23.000Z</time></trkpt>
        <trkpt lat="29.4526329" lon="104.4239705"><ele>334.22</ele><time>2026-05-02T00:36:31.000Z</time></trkpt>
        <trkpt lat="29.4527113" lon="104.424047"><ele>336.66</ele><time>2026-05-02T00:36:43.000Z</time></trkpt>
        <trkpt lat="29.4527484" lon="104.4241579"><ele>339.24</ele><time>2026-05-02T00:36:47.000Z</time></trkpt>
        <trkpt lat="29.4528046" lon="104.4242623"><ele>340.54</ele><time>2026-05-02T00:36:55.000Z</time></trkpt>
        <trkpt lat="29.4528663" lon="104.4241833"><ele>341.65</ele><time>2026-05-02T00:37:01.000Z</time></trkpt>
        <trkpt lat="29.4529657" lon="104.4240679"><ele>338.81</ele><time>2026-05-02T00:37:05.000Z</time></trkpt>
        <trkpt lat="29.453073" lon="104.4239825"><ele>336.95</ele><time>2026-05-02T00:37:10.000Z</time></trkpt>
        <trkpt lat="29.4531861" lon="104.4239253"><ele>335.65</ele><time>2026-05-02T00:37:15.000Z</time></trkpt>
        <trkpt lat="29.4532572" lon="104.4238171"><ele>334.97</ele><time>2026-05-02T00:37:21.000Z</time></trkpt>
        <trkpt lat="29.4533407" lon="104.4237045"><ele>334.92</ele><time>2026-05-02T00:37:27.000Z</time></trkpt>
        <trkpt lat="29.453456" lon="104.4236472"><ele>334.88</ele><time>2026-05-02T00:37:35.000Z</time></trkpt>
        <trkpt lat="29.4534801" lon="104.4237247"><ele>335.28</ele><time>2026-05-02T00:37:49.000Z</time></trkpt>
        <trkpt lat="29.4535388" lon="104.4237993"><ele>337.02</ele><time>2026-05-02T00:38:03.000Z</time></trkpt>
        <trkpt lat="29.4535315" lon="104.4239094"><ele>342.1</ele><time>2026-05-02T00:38:11.000Z</time></trkpt>
        <trkpt lat="29.4535211" lon="104.4240683"><ele>345.15</ele><time>2026-05-02T00:38:19.000Z</time></trkpt>
        <trkpt lat="29.45351" lon="104.4242333"><ele>346.95</ele><time>2026-05-02T00:38:23.000Z</time></trkpt>
        <trkpt lat="29.453455" lon="104.4243583"><ele>345.98</ele><time>2026-05-02T00:38:27.000Z</time></trkpt>
        <trkpt lat="29.4533642" lon="104.4244365"><ele>347.71</ele><time>2026-05-02T00:38:33.000Z</time></trkpt>
        <trkpt lat="29.4533956" lon="104.4245349"><ele>349.01</ele><time>2026-05-02T00:38:39.000Z</time></trkpt>
        <trkpt lat="29.4534831" lon="104.4245865"><ele>347.12</ele><time>2026-05-02T00:38:43.000Z</time></trkpt>
        <trkpt lat="29.4536018" lon="104.4246616"><ele>346.28</ele><time>2026-05-02T00:38:49.000Z</time></trkpt>
        <trkpt lat="29.453709" lon="104.4247699"><ele>347.76</ele><time>2026-05-02T00:38:53.000Z</time></trkpt>
        <trkpt lat="29.4538257" lon="104.4248582"><ele>347.6</ele><time>2026-05-02T00:38:58.000Z</time></trkpt>
        <trkpt lat="29.4539307" lon="104.4249167"><ele>346.86</ele><time>2026-05-02T00:39:01.000Z</time></trkpt>
        <trkpt lat="29.453982" lon="104.4250154"><ele>343.17</ele><time>2026-05-02T00:39:13.000Z</time></trkpt>
        <trkpt lat="29.4540346" lon="104.4251168"><ele>340.81</ele><time>2026-05-02T00:39:25.000Z</time></trkpt>
        <trkpt lat="29.4541001" lon="104.4252205"><ele>343.37</ele><time>2026-05-02T00:39:33.000Z</time></trkpt>
        <trkpt lat="29.4541711" lon="104.4253092"><ele>343.69</ele><time>2026-05-02T00:39:41.000Z</time></trkpt>
        <trkpt lat="29.454266" lon="104.4253777"><ele>345.1</ele><time>2026-05-02T00:39:51.000Z</time></trkpt>
        <trkpt lat="29.4543446" lon="104.4254478"><ele>346.36</ele><time>2026-05-02T00:39:57.000Z</time></trkpt>
        <trkpt lat="29.4543801" lon="104.4255494"><ele>347.57</ele><time>2026-05-02T00:40:05.000Z</time></trkpt>
        <trkpt lat="29.4544518" lon="104.4255906"><ele>352.31</ele><time>2026-05-02T00:40:13.000Z</time></trkpt>
        <trkpt lat="29.4544982" lon="104.4256987"><ele>352.48</ele><time>2026-05-02T00:40:19.000Z</time></trkpt>
        <trkpt lat="29.4545824" lon="104.4257768"><ele>352.84</ele><time>2026-05-02T00:40:25.000Z</time></trkpt>
        <trkpt lat="29.4546591" lon="104.4258544"><ele>357.41</ele><time>2026-05-02T00:40:33.000Z</time></trkpt>
        <trkpt lat="29.4546353" lon="104.4259568"><ele>356.2</ele><time>2026-05-02T00:40:41.000Z</time></trkpt>
        <trkpt lat="29.4546281" lon="104.4260339"><ele>355.76</ele><time>2026-05-02T00:40:49.000Z</time></trkpt>
        <trkpt lat="29.4545341" lon="104.4260454"><ele>359.21</ele><time>2026-05-02T00:41:05.000Z</time></trkpt>
        <trkpt lat="29.4544527" lon="104.4259721"><ele>361.07</ele><time>2026-05-02T00:41:09.000Z</time></trkpt>
        <trkpt lat="29.4543442" lon="104.4259502"><ele>361.64</ele><time>2026-05-02T00:41:15.000Z</time></trkpt>
        <trkpt lat="29.4542275" lon="104.4259085"><ele>358.59</ele><time>2026-05-02T00:41:21.000Z</time></trkpt>
        <trkpt lat="29.4542169" lon="104.4257911"><ele>356.54</ele><time>2026-05-02T00:41:25.000Z</time></trkpt>
        <trkpt lat="29.4542285" lon="104.4256387"><ele>355.61</ele><time>2026-05-02T00:41:29.000Z</time></trkpt>
        <trkpt lat="29.4542964" lon="104.4255136"><ele>355.08</ele><time>2026-05-02T00:41:35.000Z</time></trkpt>
        <trkpt lat="29.4542777" lon="104.4253916"><ele>354.71</ele><time>2026-05-02T00:41:39.000Z</time></trkpt>
        <trkpt lat="29.454164" lon="104.4253185"><ele>354.26</ele><time>2026-05-02T00:41:45.000Z</time></trkpt>
        <trkpt lat="29.4540834" lon="104.4252207"><ele>353.72</ele><time>2026-05-02T00:41:51.000Z</time></trkpt>
        <trkpt lat="29.4540181" lon="104.4251205"><ele>352.68</ele><time>2026-05-02T00:41:57.000Z</time></trkpt>
        <trkpt lat="29.4539519" lon="104.4250186"><ele>351.74</ele><time>2026-05-02T00:42:05.000Z</time></trkpt>
        <trkpt lat="29.4539151" lon="104.4249152"><ele>350.84</ele><time>2026-05-02T00:42:11.000Z</time></trkpt>
        <trkpt lat="29.4540053" lon="104.4249185"><ele>349.62</ele><time>2026-05-02T00:42:17.000Z</time></trkpt>
        <trkpt lat="29.4541069" lon="104.4249809"><ele>348.36</ele><time>2026-05-02T00:42:21.000Z</time></trkpt>
        <trkpt lat="29.4542197" lon="104.4250726"><ele>347.12</ele><time>2026-05-02T00:42:25.000Z</time></trkpt>
        <trkpt lat="29.4543143" lon="104.4251681"><ele>345.61</ele><time>2026-05-02T00:42:29.000Z</time></trkpt>
        <trkpt lat="29.454399" lon="104.4252593"><ele>344.02</ele><time>2026-05-02T00:42:33.000Z</time></trkpt>
        <trkpt lat="29.4544859" lon="104.4253398"><ele>342.36</ele><time>2026-05-02T00:42:37.000Z</time></trkpt>
        <trkpt lat="29.4545898" lon="104.4253991"><ele>340.73</ele><time>2026-05-02T00:42:41.000Z</time></trkpt>
        <trkpt lat="29.4546834" lon="104.4254672"><ele>339.41</ele><time>2026-05-02T00:42:45.000Z</time></trkpt>
        <trkpt lat="29.4547724" lon="104.4255458"><ele>338.41</ele><time>2026-05-02T00:42:49.000Z</time></trkpt>
        <trkpt lat="29.4548746" lon="104.4256128"><ele>337.49</ele><time>2026-05-02T00:42:53.000Z</time></trkpt>
        <trkpt lat="29.4549961" lon="104.425663"><ele>336.5</ele><time>2026-05-02T00:42:57.000Z</time></trkpt>
        <trkpt lat="29.4550949" lon="104.4257268"><ele>335.53</ele><time>2026-05-02T00:43:01.000Z</time></trkpt>
        <trkpt lat="29.4551502" lon="104.4258195"><ele>335.28</ele><time>2026-05-02T00:43:05.000Z</time></trkpt>
        <trkpt lat="29.455171" lon="104.4259409"><ele>335.09</ele><time>2026-05-02T00:43:11.000Z</time></trkpt>
        <trkpt lat="29.4551643" lon="104.4260727"><ele>334.44</ele><time>2026-05-02T00:43:17.000Z</time></trkpt>
        <trkpt lat="29.4551335" lon="104.4262105"><ele>333.73</ele><time>2026-05-02T00:43:23.000Z</time></trkpt>
        <trkpt lat="29.4551085" lon="104.4263402"><ele>332.89</ele><time>2026-05-02T00:43:27.000Z</time></trkpt>
        <trkpt lat="29.4550768" lon="104.4264699"><ele>331.36</ele><time>2026-05-02T00:43:33.000Z</time></trkpt>
        <trkpt lat="29.4550368" lon="104.4265829"><ele>329.59</ele><time>2026-05-02T00:43:39.000Z</time></trkpt>
        <trkpt lat="29.4550125" lon="104.4267097"><ele>327.9</ele><time>2026-05-02T00:43:45.000Z</time></trkpt>
        <trkpt lat="29.4550717" lon="104.4267905"><ele>326.29</ele><time>2026-05-02T00:43:53.000Z</time></trkpt>
        <trkpt lat="29.4551495" lon="104.4267532"><ele>323.97</ele><time>2026-05-02T00:43:59.000Z</time></trkpt>
        <trkpt lat="29.4552356" lon="104.426658"><ele>321.7</ele><time>2026-05-02T00:44:09.000Z</time></trkpt>
        <trkpt lat="29.455349" lon="104.42659"><ele>318.81</ele><time>2026-05-02T00:44:19.000Z</time></trkpt>
        <trkpt lat="29.455449" lon="104.4265017"><ele>315.99</ele><time>2026-05-02T00:44:23.000Z</time></trkpt>
        <trkpt lat="29.4555445" lon="104.4264018"><ele>314.2</ele><time>2026-05-02T00:44:27.000Z</time></trkpt>
        <trkpt lat="29.4556239" lon="104.4263126"><ele>312.94</ele><time>2026-05-02T00:44:31.000Z</time></trkpt>
        <trkpt lat="29.4556239" lon="104.4263126"><ele>312.94</ele><time>2026-05-02T00:44:35.000Z</time></trkpt>
      </trkseg>
  </trk>
</gpx>